Time;durP1;ratioP1;P1;durP2;ratioP2;P2;SDS_P1;SDS_P2;PMS_P1;PMS_P2;Temp;Humidity;BMP_temperature;BMP_pressure;BME280_temperature;BME280_humidity;BME280_pressure;Samples;Min_cycle;Max_cycle;Signal;HPM_P1;HPM_P2
2023/04/08 00:00:56;;;;;;;1999.90;999.90;;;4.70;99.90;;;;;;5043119;28;20041;-71
2023/04/08 00:03:22;;;;;;;1999.90;999.90;;;4.70;99.90;;;;;;5055067;28;20044;-71
2023/04/08 00:05:47;;;;;;;1999.90;999.90;;;4.70;99.90;;;;;;5041478;28;20072;-71
2023/04/08 00:08:13;;;;;;;1999.90;999.90;;;4.60;99.90;;;;;;5063614;28;20033;-71
2023/04/08 00:10:38;;;;;;;1999.90;999.90;;;4.70;99.90;;;;;;5047902;28;20408;-71
2023/04/08 00:13:04;;;;;;;1999.90;999.90;;;4.70;99.90;;;;;;5063181;28;20044;-71
2023/04/08 00:15:30;;;;;;;1999.90;999.90;;;4.60;99.90;;;;;;5060858;28;20047;-71
2023/04/08 00:17:55;;;;;;;1999.90;999.90;;;4.60;99.90;;;;;;5064124;28;21616;-70
2023/04/08 00:20:22;;;;;;;1999.90;999.90;;;4.60;99.90;;;;;;5058786;28;20036;-70
2023/04/08 00:22:48;;;;;;;1999.90;999.90;;;4.50;99.90;;;;;;5062854;28;20158;-70
2023/04/08 00:25:14;;;;;;;1999.90;999.90;;;4.40;99.90;;;;;;5048211;28;20139;-70
2023/04/08 00:27:40;;;;;;;1999.90;999.90;;;4.40;99.90;;;;;;5063373;28;20040;-71
2023/04/08 00:30:06;;;;;;;1999.90;999.90;;;4.40;99.90;;;;;;5062304;28;20682;-70
2023/04/08 00:32:32;;;;;;;1999.90;999.90;;;4.40;99.90;;;;;;5061943;28;20041;-70
2023/04/08 00:34:57;;;;;;;1999.90;999.90;;;4.40;99.90;;;;;;5065612;28;20526;-71
2023/04/08 00:37:23;;;;;;;1999.90;999.90;;;4.40;99.90;;;;;;5055207;28;20041;-71
2023/04/08 00:39:50;;;;;;;1999.90;999.90;;;4.30;99.90;;;;;;5063808;28;20041;-71
2023/04/08 00:42:16;;;;;;;1999.90;999.90;;;4.30;99.90;;;;;;5062038;28;20480;-71
2023/04/08 00:44:42;;;;;;;1999.90;999.90;;;4.30;99.90;;;;;;5056002;28;20044;-71
2023/04/08 00:47:12;;;;;;;1999.90;999.90;;;4.30;99.90;;;;;;5047701;28;20040;-71
2023/04/08 00:49:37;;;;;;;1999.90;999.90;;;4.30;99.90;;;;;;5045671;28;20095;-70
2023/04/08 00:52:03;;;;;;;1999.90;999.90;;;4.20;99.90;;;;;;5064373;28;20044;-71
2023/04/08 00:54:30;;;;;;;1999.90;999.90;;;4.20;99.90;;;;;;5062033;28;20049;-71
2023/04/08 00:57:00;;;;;;;1999.90;999.90;;;4.10;99.90;;;;;;5061649;28;20090;-71
2023/04/08 00:59:26;;;;;;;1999.90;999.90;;;4.20;99.90;;;;;;5062982;28;20120;-70
2023/04/08 01:01:58;;;;;;;1999.90;999.90;;;4.10;99.90;;;;;;5054753;28;20393;-71
2023/04/08 01:04:43;;;;;;;1999.90;999.90;;;4.10;99.90;;;;;;5063665;28;20044;-71
2023/04/08 01:07:35;;;;;;;1999.90;999.90;;;4.10;99.90;;;;;;5062161;28;20032;-70
2023/04/08 01:10:14;;;;;;;1999.90;999.90;;;4.10;99.90;;;;;;5045297;28;20036;-70
2023/04/08 01:12:47;;;;;;;1999.90;999.90;;;4.00;99.90;;;;;;5047793;28;20443;-72
2023/04/08 01:15:13;;;;;;;1999.90;999.90;;;4.00;99.90;;;;;;5059994;28;20082;-72
2023/04/08 01:17:40;;;;;;;1999.90;999.90;;;4.00;99.90;;;;;;5057112;28;20132;-72
2023/04/08 01:20:07;;;;;;;1999.90;999.90;;;3.90;99.90;;;;;;5062084;28;20037;-71
2023/04/08 01:22:42;;;;;;;1999.90;999.90;;;3.90;99.90;;;;;;5060919;28;20175;-71
2023/04/08 01:25:15;;;;;;;1999.90;999.90;;;3.80;99.90;;;;;;5062800;28;20502;-70
2023/04/08 01:27:42;;;;;;;1999.90;999.90;;;3.90;99.90;;;;;;5056538;28;20701;-72
2023/04/08 01:30:09;;;;;;;1999.90;999.90;;;3.90;99.90;;;;;;5060381;28;20137;-70
2023/04/08 01:32:36;;;;;;;1999.90;999.90;;;3.90;99.90;;;;;;5063498;28;20056;-71
2023/04/08 01:35:02;;;;;;;1999.90;999.90;;;3.80;99.90;;;;;;5050375;28;20052;-70
2023/04/08 01:37:29;;;;;;;1999.90;999.90;;;3.80;99.90;;;;;;5060493;28;20040;-71
2023/04/08 01:39:56;;;;;;;1999.90;999.90;;;3.80;99.90;;;;;;5041923;28;20074;-71
2023/04/08 01:42:27;;;;;;;1999.90;999.90;;;3.80;99.90;;;;;;5061139;28;20085;-70
2023/04/08 01:44:56;;;;;;;1999.90;999.90;;;3.80;99.90;;;;;;5056666;28;20059;-70
2023/04/08 01:47:22;;;;;;;1999.90;999.90;;;3.70;99.90;;;;;;5042297;28;20051;-71
2023/04/08 01:49:49;;;;;;;1999.90;999.90;;;3.70;99.90;;;;;;5057686;28;20086;-70
2023/04/08 01:52:17;;;;;;;1999.90;999.90;;;3.70;99.90;;;;;;5057015;28;20052;-71
2023/04/08 01:54:43;;;;;;;1999.90;999.90;;;3.60;99.90;;;;;;5046786;28;20143;-70
2023/04/08 01:57:13;;;;;;;1999.90;999.90;;;3.60;99.90;;;;;;5062940;28;20156;-71
2023/04/08 01:59:39;;;;;;;1999.90;999.90;;;3.60;99.90;;;;;;5063549;28;20385;-69
2023/04/08 02:02:08;;;;;;;1999.90;999.90;;;3.50;99.90;;;;;;5060279;28;20043;-70
2023/04/08 02:04:35;;;;;;;1999.90;999.90;;;3.50;99.90;;;;;;5044116;28;20128;-70
2023/04/08 02:07:01;;;;;;;1999.90;999.90;;;3.50;99.90;;;;;;5062909;28;20048;-70
2023/04/08 02:09:27;;;;;;;1999.90;999.90;;;3.50;99.90;;;;;;5039367;28;20044;-69
2023/04/08 02:11:53;;;;;;;1999.90;999.90;;;3.50;99.90;;;;;;5062243;28;20044;-69
2023/04/08 02:14:18;;;;;;;1999.90;999.90;;;3.40;99.90;;;;;;5064939;28;20075;-69
2023/04/08 02:17:01;;;;;;;1999.90;999.90;;;3.40;99.90;;;;;;5061268;28;20182;-71
2023/04/08 02:19:30;;;;;;;1999.90;999.90;;;3.50;99.90;;;;;;5060861;28;20392;-69
2023/04/08 02:22:10;;;;;;;1999.90;999.90;;;3.50;99.90;;;;;;5063232;28;20106;-71
2023/04/08 02:24:39;;;;;;;1999.90;999.90;;;3.40;99.90;;;;;;5058019;28;20048;-69
2023/04/08 02:27:07;;;;;;;1999.90;999.90;;;3.40;99.90;;;;;;5052315;28;20055;-69
2023/04/08 02:29:35;;;;;;;1999.90;999.90;;;3.50;99.90;;;;;;5058061;28;20067;-70
2023/04/08 02:32:02;;;;;;;1999.90;999.90;;;3.50;99.90;;;;;;5059889;28;20080;-69
2023/04/08 02:34:29;;;;;;;1999.90;999.90;;;3.50;99.90;;;;;;5061950;28;20524;-69
2023/04/08 02:36:55;;;;;;;1999.90;999.90;;;3.50;99.90;;;;;;5061062;28;20043;-70
2023/04/08 02:39:21;;;;;;;1999.90;999.90;;;3.40;99.90;;;;;;5047748;28;20119;-70
2023/04/08 02:41:46;;;;;;;1999.90;999.90;;;3.50;99.90;;;;;;5054682;28;20044;-70
2023/04/08 02:44:12;;;;;;;1999.90;999.90;;;3.40;99.90;;;;;;5062796;28;20051;-70
2023/04/08 02:46:37;;;;;;;1999.90;999.90;;;3.50;99.90;;;;;;5040646;28;20138;-69
2023/04/08 02:49:03;;;;;;;1999.90;999.90;;;3.50;99.90;;;;;;5064202;28;20124;-70
2023/04/08 02:51:29;;;;;;;1999.90;999.90;;;3.50;99.90;;;;;;5060954;28;20055;-70
2023/04/08 02:53:54;;;;;;;1999.90;999.90;;;3.50;99.90;;;;;;5061411;28;20504;-70
2023/04/08 02:56:20;;;;;;;1999.90;999.90;;;3.50;99.90;;;;;;5059967;28;20045;-69
2023/04/08 02:58:46;;;;;;;1999.90;999.90;;;3.50;99.90;;;;;;5056165;28;20522;-69
2023/04/08 03:01:11;;;;;;;1999.90;999.90;;;3.50;99.90;;;;;;5060583;28;20043;-70
2023/04/08 03:03:37;;;;;;;1999.90;999.90;;;3.50;99.90;;;;;;5060923;28;20494;-70
2023/04/08 03:06:03;;;;;;;1999.90;999.90;;;3.50;99.90;;;;;;5045139;28;20444;-69
2023/04/08 03:08:28;;;;;;;1999.90;999.90;;;3.50;99.90;;;;;;5079570;28;20053;-71
2023/04/08 03:10:54;;;;;;;1999.90;999.90;;;3.50;99.90;;;;;;5043537;28;20077;-71
2023/04/08 03:13:20;;;;;;;1999.90;999.90;;;3.40;99.90;;;;;;5064190;28;20047;-71
2023/04/08 03:15:45;;;;;;;1999.90;999.90;;;3.30;99.90;;;;;;5037177;28;20044;-71
2023/04/08 03:18:11;;;;;;;1999.90;999.90;;;3.20;99.90;;;;;;5063491;28;20067;-71
2023/04/08 03:20:37;;;;;;;1999.90;999.90;;;3.30;99.90;;;;;;5062517;28;20028;-72
2023/04/08 03:23:02;;;;;;;1999.90;999.90;;;3.30;99.90;;;;;;5061016;28;20085;-70
2023/04/08 03:25:28;;;;;;;1999.90;999.90;;;3.30;99.90;;;;;;5044497;28;20064;-70
2023/04/08 03:27:54;;;;;;;1999.90;999.90;;;3.30;99.90;;;;;;5059885;28;20796;-71
2023/04/08 03:30:20;;;;;;;1999.90;999.90;;;3.30;99.90;;;;;;5058276;28;20044;-71
2023/04/08 03:32:46;;;;;;;1999.90;999.90;;;3.20;99.90;;;;;;5056137;28;20044;-69
2023/04/08 03:35:11;;;;;;;1999.90;999.90;;;3.10;99.90;;;;;;5057729;28;20405;-70
2023/04/08 03:37:37;;;;;;;1999.90;999.90;;;3.10;99.90;;;;;;5061487;28;20037;-69
2023/04/08 03:40:03;;;;;;;1999.90;999.90;;;3.10;99.90;;;;;;5061176;28;20047;-70
2023/04/08 03:42:29;;;;;;;1999.90;999.90;;;3.00;99.90;;;;;;5044261;28;20086;-69
2023/04/08 03:44:54;;;;;;;1999.90;999.90;;;2.90;99.90;;;;;;5056744;28;20052;-70
2023/04/08 03:47:20;;;;;;;1999.90;999.90;;;2.90;99.90;;;;;;5061016;28;20396;-70
2023/04/08 03:49:45;;;;;;;1999.90;999.90;;;2.90;99.90;;;;;;5040221;28;20046;-70
2023/04/08 03:52:11;;;;;;;1999.90;999.90;;;2.80;99.90;;;;;;5063984;28;20400;-70
2023/04/08 03:54:37;;;;;;;1999.90;999.90;;;2.80;99.90;;;;;;5063387;28;20041;-69
2023/04/08 03:57:02;;;;;;;1999.90;999.90;;;2.70;99.90;;;;;;5062155;28;20051;-69
2023/04/08 03:59:28;;;;;;;1999.90;999.90;;;2.60;99.90;;;;;;5065654;28;20051;-70
2023/04/08 04:01:54;;;;;;;1999.90;999.90;;;2.60;99.90;;;;;;5044533;28;20041;-69
2023/04/08 04:04:20;;;;;;;1999.90;999.90;;;2.50;99.90;;;;;;5062136;28;20048;-69
2023/04/08 04:06:46;;;;;;;1999.90;999.90;;;2.50;99.90;;;;;;5049566;28;20049;-69
2023/04/08 04:09:11;;;;;;;1999.90;999.90;;;2.50;99.90;;;;;;5058394;28;20048;-69
2023/04/08 04:11:37;;;;;;;1999.90;999.90;;;2.50;99.90;;;;;;5062599;28;20040;-69
2023/04/08 04:14:03;;;;;;;1999.90;999.90;;;2.40;99.90;;;;;;5064058;28;20052;-69
2023/04/08 04:16:29;;;;;;;1999.90;999.90;;;2.40;99.90;;;;;;5058146;28;20461;-69
2023/04/08 04:18:54;;;;;;;1999.90;999.90;;;2.30;99.90;;;;;;5061010;28;20581;-69
2023/04/08 04:21:20;;;;;;;1999.90;999.90;;;2.30;99.90;;;;;;5064656;28;20036;-69
2023/04/08 04:23:46;;;;;;;1999.90;999.90;;;2.20;99.90;;;;;;5048365;28;20124;-69
2023/04/08 04:26:12;;;;;;;1999.90;999.90;;;2.20;99.90;;;;;;5055270;28;20139;-69
2023/04/08 04:28:37;;;;;;;1999.90;999.90;;;2.20;99.90;;;;;;5064722;28;20044;-69
2023/04/08 04:31:03;;;;;;;1999.90;999.90;;;2.20;99.90;;;;;;5065063;28;20713;-69
2023/04/08 04:33:30;;;;;;;1999.90;999.90;;;2.20;99.90;;;;;;5047004;28;20075;-69
2023/04/08 04:35:55;;;;;;;1999.90;999.90;;;2.10;99.90;;;;;;5064480;28;20115;-69
2023/04/08 04:38:21;;;;;;;1999.90;999.90;;;2.00;99.90;;;;;;5059330;28;20115;-69
2023/04/08 04:40:47;;;;;;;1999.90;999.90;;;1.90;99.90;;;;;;5063225;28;20036;-69
2023/04/08 04:43:12;;;;;;;1999.90;999.90;;;1.90;99.90;;;;;;5057509;28;20033;-70
2023/04/08 04:45:38;;;;;;;1999.90;999.90;;;2.00;99.90;;;;;;5048997;28;20510;-70
2023/04/08 04:48:04;;;;;;;1999.90;999.90;;;1.90;99.90;;;;;;5064130;28;20070;-70
2023/04/08 04:50:29;;;;;;;1999.90;999.90;;;1.90;99.90;;;;;;5064259;28;20068;-70
2023/04/08 04:52:55;;;;;;;1999.90;999.90;;;1.90;99.90;;;;;;5047878;28;21303;-70
2023/04/08 04:55:23;;;;;;;1999.90;999.90;;;1.90;99.90;;;;;;5047436;28;20159;-70
2023/04/08 04:57:49;;;;;;;1999.90;999.90;;;1.80;99.90;;;;;;5056394;28;20119;-70
2023/04/08 05:00:15;;;;;;;1999.90;999.90;;;1.90;99.90;;;;;;5045317;28;20123;-68
2023/04/08 05:02:41;;;;;;;1999.90;999.90;;;1.90;99.90;;;;;;5058314;28;20041;-68
2023/04/08 05:05:07;;;;;;;1999.90;999.90;;;1.90;99.90;;;;;;5063070;28;20093;-69
2023/04/08 05:07:37;;;;;;;1999.90;999.90;;;1.90;99.90;;;;;;5059955;28;20045;-68
2023/04/08 05:10:04;;;;;;;1999.90;999.90;;;1.90;99.90;;;;;;5061511;28;20044;-68
2023/04/08 05:12:30;;;;;;;1999.90;999.90;;;1.90;99.90;;;;;;5058290;28;20041;-69
2023/04/08 05:14:58;;;;;;;1999.90;999.90;;;1.90;99.90;;;;;;5055845;28;20047;-69
2023/04/08 05:17:24;;;;;;;1999.90;999.90;;;1.90;99.90;;;;;;5045484;28;20040;-69
2023/04/08 05:19:50;;;;;;;1999.90;999.90;;;1.90;99.90;;;;;;5061245;28;20032;-68
2023/04/08 05:22:16;;;;;;;1999.90;999.90;;;1.90;99.90;;;;;;5055713;28;20151;-68
2023/04/08 05:24:42;;;;;;;1999.90;999.90;;;1.90;99.90;;;;;;5061569;28;20129;-68
2023/04/08 05:27:07;;;;;;;1999.90;999.90;;;1.90;99.90;;;;;;5048222;28;20048;-69
2023/04/08 05:29:33;;;;;;;1999.90;999.90;;;1.90;99.90;;;;;;5062701;28;20048;-68
2023/04/08 05:31:58;;;;;;;1999.90;999.90;;;1.90;99.90;;;;;;5063623;28;20469;-68
2023/04/08 05:34:24;;;;;;;1999.90;999.90;;;2.00;99.90;;;;;;5064295;28;20127;-68
2023/04/08 05:36:53;;;;;;;1999.90;999.90;;;2.00;99.90;;;;;;5064669;28;20113;-68
2023/04/08 05:39:19;;;;;;;1999.90;999.90;;;2.00;99.90;;;;;;5059677;28;20576;-68
2023/04/08 05:41:45;;;;;;;1999.90;999.90;;;2.00;99.90;;;;;;5061024;28;20603;-68
2023/04/08 05:44:12;;;;;;;1999.90;999.90;;;2.00;99.90;;;;;;5056565;28;20040;-68
2023/04/08 05:46:37;;;;;;;1999.90;999.90;;;2.00;99.90;;;;;;5042560;28;20073;-68
2023/04/08 05:49:03;;;;;;;1999.90;999.90;;;2.10;99.90;;;;;;5056947;28;21871;-69
2023/04/08 05:51:29;;;;;;;1999.90;999.90;;;2.10;99.90;;;;;;5045325;28;20117;-68
2023/04/08 05:53:54;;;;;;;1999.90;999.90;;;2.10;99.90;;;;;;5063264;28;20036;-69
2023/04/08 05:56:20;;;;;;;1999.90;999.90;;;2.10;99.90;;;;;;5046668;28;20040;-68
2023/04/08 05:58:46;;;;;;;1999.90;999.90;;;2.10;99.90;;;;;;5063919;28;20072;-68
2023/04/08 06:01:12;;;;;;;1999.90;999.90;;;2.20;99.90;;;;;;5060501;28;20041;-69
2023/04/08 06:03:37;;;;;;;1999.90;999.90;;;2.20;99.90;;;;;;5058777;28;20048;-68
2023/04/08 06:06:03;;;;;;;1999.90;999.90;;;2.30;99.90;;;;;;5059593;28;20047;-68
2023/04/08 06:08:29;;;;;;;1999.90;999.90;;;2.40;99.90;;;;;;5056755;28;20040;-69
2023/04/08 06:10:54;;;;;;;1999.90;999.90;;;2.50;99.90;;;;;;5045543;28;20137;-70
2023/04/08 06:13:20;;;;;;;1999.90;999.90;;;2.70;99.90;;;;;;5061046;28;20081;-69
2023/04/08 06:15:47;;;;;;;1999.90;999.90;;;2.90;99.90;;;;;;5062125;28;20043;-70
2023/04/08 06:18:15;;;;;;;1999.90;999.90;;;3.10;99.90;;;;;;5064110;28;20087;-70
2023/04/08 06:20:40;;;;;;;1999.90;999.90;;;3.30;99.90;;;;;;5059968;28;20089;-69
2023/04/08 06:23:06;;;;;;;1999.90;999.90;;;3.50;99.90;;;;;;5065028;28;20037;-69
2023/04/08 06:25:31;;;;;;;1999.90;999.90;;;3.70;99.90;;;;;;5056316;28;20056;-69
2023/04/08 06:27:57;;;;;;;1999.90;999.90;;;3.80;99.90;;;;;;5060520;28;20175;-69
2023/04/08 06:30:23;;;;;;;1999.90;999.90;;;4.00;99.90;;;;;;5044674;28;20043;-69
2023/04/08 06:32:48;;;;;;;1999.90;999.90;;;4.10;99.90;;;;;;5061788;28;20036;-70
2023/04/08 06:35:14;;;;;;;1999.90;999.90;;;4.20;99.90;;;;;;5043617;28;20139;-70
2023/04/08 06:37:40;;;;;;;1999.90;999.90;;;4.40;99.90;;;;;;5062712;28;20135;-69
2023/04/08 06:40:06;;;;;;;1999.90;999.90;;;4.60;99.90;;;;;;5052987;28;20074;-70
2023/04/08 06:42:32;;;;;;;1999.90;999.90;;;5.00;99.90;;;;;;5063451;28;20480;-69
2023/04/08 06:44:58;;;;;;;1999.90;999.90;;;5.20;99.90;;;;;;5057888;28;20131;-69
2023/04/08 06:47:23;;;;;;;1999.90;999.90;;;5.50;99.90;;;;;;5048084;28;20090;-69
2023/04/08 06:49:49;;;;;;;1999.90;999.90;;;5.70;99.90;;;;;;5060050;28;20037;-70
2023/04/08 06:52:15;;;;;;;1999.90;999.90;;;5.80;99.90;;;;;;5057674;28;20094;-69
2023/04/08 06:54:41;;;;;;;1999.90;999.90;;;6.00;99.90;;;;;;5042450;28;20041;-70
2023/04/08 06:57:07;;;;;;;1999.90;999.90;;;6.10;99.90;;;;;;5053315;28;20071;-69
2023/04/08 06:59:32;;;;;;;1999.90;999.90;;;6.10;99.90;;;;;;5062672;28;20047;-69
2023/04/08 07:01:59;;;;;;;1999.90;999.90;;;6.10;99.90;;;;;;5061344;28;20115;-70
2023/04/08 07:04:24;;;;;;;1999.90;999.90;;;6.20;99.90;;;;;;5058257;28;20083;-70
2023/04/08 07:06:50;;;;;;;1999.90;999.90;;;6.30;99.90;;;;;;5058702;28;20481;-69
2023/04/08 07:09:16;;;;;;;1999.90;999.90;;;6.40;99.90;;;;;;5058282;28;20166;-70
2023/04/08 07:11:41;;;;;;;1999.90;999.90;;;6.50;99.90;;;;;;5060334;28;20503;-70
2023/04/08 07:14:07;;;;;;;1999.90;999.90;;;6.60;99.90;;;;;;5034356;28;20044;-70
2023/04/08 07:16:33;;;;;;;1999.90;999.90;;;6.70;99.90;;;;;;5058811;28;20141;-69
2023/04/08 07:18:58;;;;;;;1999.90;999.90;;;6.80;99.90;;;;;;5058042;28;20045;-70
2023/04/08 07:21:24;;;;;;;1999.90;999.90;;;6.90;99.90;;;;;;5054198;28;20044;-70
2023/04/08 07:23:50;;;;;;;1999.90;999.90;;;7.00;99.90;;;;;;5060711;28;20098;-70
2023/04/08 07:26:15;;;;;;;1999.90;999.90;;;7.30;99.90;;;;;;5058427;28;20067;-69
2023/04/08 07:28:41;;;;;;;1999.90;999.90;;;7.50;99.90;;;;;;5062361;28;20051;-69
2023/04/08 07:31:12;;;;;;;1999.90;999.90;;;7.60;99.90;;;;;;5042081;28;20040;-70
2023/04/08 07:33:38;;;;;;;1999.90;999.90;;;7.70;99.90;;;;;;5063962;28;20404;-70
2023/04/08 07:36:04;;;;;;;1999.90;999.90;;;7.80;99.90;;;;;;5066701;28;20049;-70
2023/04/08 07:38:29;;;;;;;1999.90;999.90;;;7.80;99.90;;;;;;5065713;28;20454;-69
2023/04/08 07:40:55;;;;;;;1999.90;999.90;;;7.70;99.90;;;;;;5046073;28;20040;-69
2023/04/08 07:43:21;;;;;;;1999.90;999.90;;;7.60;99.90;;;;;;5062117;28;20064;-70
2023/04/08 07:45:46;;;;;;;1999.90;999.90;;;7.50;99.90;;;;;;5064278;28;20484;-69
2023/04/08 07:48:12;;;;;;;1999.90;999.90;;;7.50;99.90;;;;;;5061490;28;20040;-70
2023/04/08 07:50:37;;;;;;;1999.90;999.90;;;7.60;99.90;;;;;;5038318;28;20571;-70
2023/04/08 07:53:03;;;;;;;1999.90;999.90;;;7.60;99.90;;;;;;5045342;28;20041;-69
2023/04/08 07:55:33;;;;;;;1999.90;999.90;;;7.70;99.90;;;;;;5040610;28;20047;-70
2023/04/08 07:57:59;;;;;;;1999.90;999.90;;;7.90;99.90;;;;;;5077951;28;20089;-70
2023/04/08 08:00:25;;;;;;;1999.90;999.90;;;7.90;99.90;;;;;;5064202;28;20488;-69
2023/04/08 08:02:50;;;;;;;1999.90;999.90;;;8.00;99.90;;;;;;5064908;28;20047;-69
2023/04/08 08:05:16;;;;;;;1999.90;999.90;;;8.10;99.90;;;;;;5044289;28;20036;-70
2023/04/08 08:07:41;;;;;;;1999.90;999.90;;;8.10;99.90;;;;;;5038775;28;20080;-71
2023/04/08 08:10:08;;;;;;;1999.90;999.90;;;8.20;99.90;;;;;;5063013;28;20530;-70
2023/04/08 08:12:34;;;;;;;1999.90;999.90;;;8.20;99.90;;;;;;5076869;28;20052;-70
2023/04/08 08:15:00;;;;;;;1999.90;999.90;;;8.20;99.90;;;;;;5064645;28;20098;-70
2023/04/08 08:17:28;;;;;;;1999.90;999.90;;;8.20;99.90;;;;;;5064165;28;20497;-71
2023/04/08 08:19:54;;;;;;;1999.90;999.90;;;8.30;99.90;;;;;;5064421;28;20097;-71
2023/04/08 08:22:20;;;;;;;1999.90;999.90;;;8.30;99.90;;;;;;5076198;28;20040;-71
2023/04/08 08:24:46;;;;;;;1999.90;999.90;;;8.30;99.90;;;;;;5036913;28;20525;-69
2023/04/08 08:27:11;;;;;;;1999.90;999.90;;;8.30;99.90;;;;;;5038996;28;20163;-71
2023/04/08 08:29:37;;;;;;;1999.90;999.90;;;8.40;99.90;;;;;;5041107;28;20566;-70
2023/04/08 08:32:03;;;;;;;1999.90;999.90;;;8.50;99.90;;;;;;5054239;28;20041;-70
2023/04/08 08:34:29;;;;;;;1999.90;999.90;;;8.80;99.90;;;;;;5057060;28;20045;-71
2023/04/08 08:36:55;;;;;;;1999.90;999.90;;;9.10;99.90;;;;;;5052222;28;20556;-70
2023/04/08 08:39:21;;;;;;;1999.90;999.90;;;9.40;99.90;;;;;;5041669;28;20119;-71
2023/04/08 08:41:47;;;;;;;1999.90;999.90;;;9.40;99.90;;;;;;5038669;28;20555;-70
2023/04/08 08:44:13;;;;;;;1999.90;999.90;;;9.30;99.90;;;;;;5060645;28;20464;-71
2023/04/08 08:46:47;;;;;;;1999.90;999.90;;;9.10;99.90;;;;;;5043228;28;20052;-70
2023/04/08 08:49:13;;;;;;;1999.90;999.90;;;9.00;99.90;;;;;;5066494;28;20168;-70
2023/04/08 08:51:45;;;;;;;1999.90;999.90;;;9.10;99.90;;;;;;5063249;28;20051;-71
2023/04/08 08:54:10;;;;;;;1999.90;999.90;;;9.20;99.90;;;;;;5053053;28;20044;-70
2023/04/08 08:56:36;;;;;;;1999.90;999.90;;;9.20;99.90;;;;;;5056350;28;20036;-70
2023/04/08 08:59:02;;;;;;;1999.90;999.90;;;9.30;99.90;;;;;;5051619;28;20524;-70
2023/04/08 09:01:40;;;;;;;1999.90;999.90;;;9.30;99.90;;;;;;5058288;28;20053;-71
2023/04/08 09:04:07;;;;;;;1999.90;999.90;;;9.40;99.90;;;;;;5040701;28;20032;-70
2023/04/08 09:06:33;;;;;;;1999.90;999.90;;;9.50;99.90;;;;;;5062103;28;20086;-71
2023/04/08 09:08:58;;;;;;;1999.90;999.90;;;9.50;99.90;;;;;;5062301;28;20473;-71
2023/04/08 09:11:25;;;;;;;1999.90;999.90;;;9.50;99.90;;;;;;5061212;28;20582;-70
2023/04/08 09:13:50;;;;;;;1999.90;999.90;;;9.50;99.90;;;;;;5062988;28;20497;-70
2023/04/08 09:16:18;;;;;;;1999.90;999.90;;;9.40;99.90;;;;;;5046613;28;20039;-70
2023/04/08 09:18:46;;;;;;;1999.90;999.90;;;9.20;99.90;;;;;;5062421;28;20070;-70
2023/04/08 09:21:13;;;;;;;1999.90;999.90;;;9.10;99.90;;;;;;5053828;28;20042;-70
2023/04/08 09:23:44;;;;;;;1999.90;999.90;;;9.10;99.90;;;;;;5063119;28;20041;-70
2023/04/08 09:26:12;;;;;;;1999.90;999.90;;;9.10;99.90;;;;;;5065646;28;20071;-70
2023/04/08 09:28:38;;;;;;;1999.90;999.90;;;9.10;99.90;;;;;;5077209;28;20054;-69
2023/04/08 09:31:22;;;;;;;1999.90;999.90;;;9.20;99.90;;;;;;5064270;28;20066;-71
2023/04/08 09:33:53;;;;;;;1999.90;999.90;;;9.20;99.90;;;;;;5061277;28;20049;-71
2023/04/08 09:36:19;;;;;;;1999.90;999.90;;;9.10;99.90;;;;;;5062825;28;20036;-69
2023/04/08 09:38:45;;;;;;;1999.90;999.90;;;9.00;99.90;;;;;;5060335;28;20187;-70
2023/04/08 09:41:16;;;;;;;1999.90;999.90;;;8.90;99.90;;;;;;5074637;28;20032;-70
2023/04/08 09:44:09;;;;;;;1999.90;999.90;;;8.70;99.90;;;;;;5056541;28;20043;-70
2023/04/08 09:46:51;;;;;;;1999.90;999.90;;;8.50;99.90;;;;;;5044080;28;20052;-70
2023/04/08 09:49:37;;;;;;;1999.90;999.90;;;8.40;99.90;;;;;;5040620;28;20079;-70
2023/04/08 09:52:07;;;;;;;1999.90;999.90;;;8.40;99.90;;;;;;5053848;28;20071;-71
2023/04/08 09:55:16;;;;;;;1999.90;999.90;;;8.40;99.90;;;;;;5097527;27;20531;-70
2023/04/08 09:57:57;;;;;;;1999.90;999.90;;;8.50;99.90;;;;;;5061705;28;20518;-69
2023/04/08 10:00:33;;;;;;;1999.90;999.90;;;8.50;99.90;;;;;;5063961;28;20048;-69
2023/04/08 10:03:24;;;;;;;106.78;98.40;;;8.50;99.90;;;;;;5063052;28;20072;-69
2023/04/08 10:05:52;;;;;;;81.85;76.10;;;8.60;99.90;;;;;;5061453;28;20123;-70
2023/04/08 10:08:18;;;;;;;59.92;56.75;;;8.60;99.90;;;;;;5043639;28;20040;-69
2023/04/08 10:10:45;;;;;;;37.67;34.67;;;8.60;99.90;;;;;;5076615;28;20710;-70
2023/04/08 10:13:11;;;;;;;43.70;40.30;;;8.50;99.90;;;;;;5063577;28;20044;-69
2023/04/08 10:15:39;;;;;;;44.92;41.92;;;8.50;99.90;;;;;;5080573;28;20036;-69
2023/04/08 10:18:08;;;;;;;45.22;42.35;;;8.70;99.90;;;;;;5065308;28;20044;-69
2023/04/08 10:20:33;;;;;;;45.70;42.63;;;8.80;99.90;;;;;;5064140;28;20032;-70
2023/04/08 10:23:00;;;;;;;46.25;43.08;;;8.90;99.90;;;;;;5048120;28;20038;-69
2023/04/08 10:25:31;;;;;;;52.55;48.90;;;8.90;99.90;;;;;;5065403;28;20043;-69
2023/04/08 10:27:57;;;;;;;45.92;42.72;;;8.80;99.90;;;;;;5063024;28;20040;-69
2023/04/08 10:30:32;;;;;;;47.00;43.60;;;8.90;99.90;;;;;;5055315;28;20048;-69
2023/04/08 10:32:58;;;;;;;50.20;46.50;;;9.00;99.90;;;;;;5065142;28;20051;-69
2023/04/08 10:35:31;;;;;;;46.38;43.17;;;9.00;99.90;;;;;;5063276;28;20040;-69
2023/04/08 10:37:58;;;;;;;52.47;48.67;;;9.00;99.90;;;;;;5048209;28;20067;-70
2023/04/08 10:40:24;;;;;;;45.58;42.25;;;9.10;99.90;;;;;;5063135;28;20028;-70
2023/04/08 10:42:56;;;;;;;35.97;33.67;;;9.00;99.90;;;;;;5061136;28;20510;-69
2023/04/08 10:45:23;;;;;;;46.47;43.22;;;9.00;99.90;;;;;;5055048;28;20045;-69
2023/04/08 10:47:48;;;;;;;53.22;49.42;;;8.90;99.90;;;;;;5065210;28;20070;-69
2023/04/08 10:50:15;;;;;;;49.30;45.70;;;8.90;99.90;;;;;;5062967;28;20060;-69
2023/04/08 10:52:47;;;;;;;57.13;53.00;;;8.90;99.90;;;;;;5062779;28;20548;-69
2023/04/08 10:55:13;;;;;;;46.47;43.17;;;9.00;99.90;;;;;;5062596;28;20052;-70
2023/04/08 10:57:42;;;;;;;50.33;46.90;;;9.10;99.90;;;;;;5062370;28;20443;-70
2023/04/08 12:30:10;;;;;;;50.20;46.35;;;10.30;99.90;;;;;;5098118;27;20716;-70
2023/04/08 12:32:36;;;;;;;53.88;49.95;;;10.30;99.90;;;;;;5105906;28;20035;-70
2023/04/08 12:35:01;;;;;;;65.60;61.15;;;10.30;99.90;;;;;;5102601;28;20059;-70
2023/04/08 12:37:27;;;;;;;94.70;85.40;;;10.30;99.90;;;;;;5084983;28;20040;-70
2023/04/08 12:39:53;;;;;;;78.65;73.75;;;10.30;99.90;;;;;;5116004;27;20043;-71
2023/04/08 12:42:18;;;;;;;86.88;81.70;;;10.30;99.90;;;;;;5102244;28;20121;-70
2023/04/08 12:44:44;;;;;;;85.95;78.97;;;10.30;99.90;;;;;;5097886;28;20109;-70
2023/04/08 12:47:10;;;;;;;82.60;77.40;;;10.30;99.90;;;;;;5099662;28;20635;-71
2023/04/08 12:49:35;;;;;;;67.47;63.33;;;10.30;99.90;;;;;;5094264;28;20564;-69
2023/04/08 12:52:01;;;;;;;68.78;63.95;;;10.40;99.90;;;;;;5100879;28;20067;-70
2023/04/08 12:54:27;;;;;;;86.78;79.40;;;10.30;99.90;;;;;;5102200;28;20048;-69
2023/04/08 12:56:52;;;;;;;62.20;57.85;;;10.30;99.90;;;;;;5085175;28;20051;-70
2023/04/08 12:59:18;;;;;;;63.13;58.55;;;10.30;99.90;;;;;;5119373;27;20040;-70
2023/04/08 13:01:43;;;;;;;70.03;65.00;;;10.40;99.90;;;;;;5102877;28;20039;-69
2023/04/08 13:04:09;;;;;;;72.55;67.75;;;10.40;99.90;;;;;;5085448;28;20115;-69
2023/04/08 13:06:35;;;;;;;75.65;70.32;;;10.40;99.90;;;;;;5094868;28;20036;-69
2023/04/08 13:09:00;;;;;;;67.22;62.78;;;10.40;99.90;;;;;;5103057;28;20039;-71
2023/04/08 13:11:26;;;;;;;83.28;78.18;;;10.40;99.90;;;;;;5086765;28;20044;-70
2023/04/08 13:13:52;;;;;;;81.25;75.38;;;10.40;99.90;;;;;;5100165;28;20050;-70
2023/04/08 13:16:18;;;;;;;62.85;58.90;;;10.40;99.90;;;;;;5100917;28;20491;-69
2023/04/08 13:18:44;;;;;;;74.88;70.03;;;10.40;99.90;;;;;;5103950;28;20043;-71
2023/04/08 13:21:09;;;;;;;82.28;77.15;;;10.40;99.90;;;;;;5132016;27;20065;-69
2023/04/08 13:23:35;;;;;;;83.72;78.53;;;10.40;99.90;;;;;;5094283;28;20047;-70
2023/04/08 13:26:01;;;;;;;83.70;78.65;;;10.40;99.90;;;;;;5083462;28;20039;-70
2023/04/08 13:28:27;;;;;;;74.72;70.15;;;10.40;99.90;;;;;;5100254;28;20887;-70
2023/04/08 13:30:54;;;;;;;79.22;74.43;;;10.40;99.90;;;;;;5094459;28;20047;-70
2023/04/08 13:33:20;;;;;;;98.45;92.93;;;10.40;99.90;;;;;;5102553;28;20051;-71
2023/04/08 13:35:46;;;;;;;97.45;91.55;;;10.40;99.90;;;;;;5100708;28;20050;-69
2023/04/08 13:38:12;;;;;;;76.13;71.15;;;10.50;99.90;;;;;;5083409;28;20032;-70
2023/04/08 13:40:38;;;;;;;87.28;82.25;;;10.60;99.90;;;;;;5082852;28;20692;-69
2023/04/08 13:43:04;;;;;;;79.43;74.60;;;10.60;99.90;;;;;;5123381;27;20032;-69